Terminal Aerodrome Forecast
Issued by NWS

Home | Current Version | Previous Version | Graphics & Text | Print | Product List | Glossary On
Versions: 1 2 3 4 5 6 7 8 9 10 11 12 13 14 15 16 17 18 19 20 21 22 23 24
845
FTUS43 KGRB 251412 AAA
TAFCWA
TAF AMD
KCWA 251412Z 2514/2612 09004KT P6SM OVC005
     FM251900 11010G17KT P6SM SCT025 BKN200
     FM252100 12009KT 6SM -SHRA BKN025 OVC080
      TEMPO 2522/2602 2SM +TSRA BKN008 OVC015CB
     FM260400 15007KT 2SM BR BKN005 BKN010=

USA.gov is the U.S. government's official web portal to all federal, state and local government web resources and services.